CheckWX is a tool to help pilots better visualize weather data.  It is not intended as a substitute for an official pre-flight weather briefing.

09:31:12 UTC

PAEI TAF
Eielson AFB Airport
Fairbanks, Alaska, USA
TAF PAEI 180400Z 1804/1910 12009KT 9999 BKN060 610804 QNH2958INS TEMPO 1804/1808 8000 -SHRA BECMG 1821/1822 27009KT 9999 VCSH BKN040 610903 QNH2976INS BECMG 1906/1907 VRB06KT 9999 NSW SCT040 QNH2984INS TX21/1900Z TN12/1813Z

Jun-18@
04:00 UTC

Jun-18 @ 04:00 UTC

Jun-18@
21:00 UTC

Jun-18 @ 21:00 UTC

TAF PAEI 180400Z 1804/1910 12009KT 9999 BKN060 610804 QNH2958INS
Wind
  • 120° at 9 KTS
Cloud Levels
  • Broken at 6,000' AGL
Icing
Light icing expected at 8,000' AGL extending to 12,000' AGL

Jun-18@
04:00 UTC

Jun-18 @ 04:00 UTC

Jun-18@
08:00 UTC

Jun-18 @ 08:00 UTC

TEMPO 1804/1808 8000 -SHRA

Expired

Conditions
Light Rain

Jun-18@
21:00 UTC

Jun-18 @ 21:00 UTC

Jun-19@
06:00 UTC

Jun-19 @ 06:00 UTC

BECMG 1821/1822 27009KT 9999 VCSH BKN040 610903 QNH2976INS

Becoming

Becoming Conditions expected by Tue, Jun 18, 2019 @ 22:00 UTC

Wind
  • 270° at 9 KTS
Cloud Levels
  • Broken at 4,000' AGL
Icing
Light icing expected at 9,000' AGL extending to 12,000' AGL

Jun-19@
06:00 UTC

Jun-19 @ 06:00 UTC

Jun-19@
10:00 UTC

Jun-19 @ 10:00 UTC

BECMG 1906/1907 VRB06KT 9999 NSW SCT040 QNH2984INS TX21/1900Z TN12/1813Z

Becoming

Becoming Conditions expected by Wed, Jun 19, 2019 @ 07:00 UTC

Wind
  • Variable at 6 KTS
Conditions
No significant weather
Cloud Levels
  • Scattered at 4,000' AGL